Terminal Aerodrome Forecast
Issued by NWS Nashville, TN

Home | Current Version | Previous Version | Text Only | Print | Product List | Glossary On
Versions: 1 2 3 4 5 6 7 8 9 10 11 12 13 14 15 16 17 18 19
000
FTUS44 KOHX 261700 RRA
TAFCSV
TAF
KCSV 261741Z 2618/2718 30005KT P6SM SKC
     FM262200 24005KT P6SM BKN050
     FM270300 27004KT P6SM -RA OVC050
     FM270600 29007KT 4SM -SN BR OVC015
     FM271200 31008KT P6SM OVC025=

USA.gov is the U.S. government's official web portal to all federal, state and local government web resources and services.